Time;durP1;ratioP1;P1;durP2;ratioP2;P2;SDS_P1;SDS_P2;PMS_P1;PMS_P2;Temp;Humidity;BMP_temperature;BMP_pressure;BME280_temperature;BME280_humidity;BME280_pressure;Samples;Min_cycle;Max_cycle;Signal;HPM_P1;HPM_P2
2023/05/31 00:01:52;;;;;;;0.60;0.60;;;20.80;47.90;;;21.22;33.58;95431.97;5013521;28;20193;-45
2023/05/31 00:04:19;;;;;;;0.40;0.40;;;20.80;48.00;;;21.19;33.18;95426.34;5014841;28;20223;-44
2023/05/31 00:06:46;;;;;;;0.40;0.40;;;20.80;47.90;;;21.17;33.05;95433.78;5014728;28;20583;-45
2023/05/31 00:09:13;;;;;;;0.40;0.40;;;20.70;47.90;;;21.14;33.44;95434.28;5014606;28;20212;-44
2023/05/31 00:11:41;;;;;;;0.40;0.40;;;20.70;47.90;;;21.13;33.14;95427.31;5014775;28;20192;-44
2023/05/31 00:14:09;;;;;;;0.40;0.40;;;20.70;47.90;;;21.09;33.50;95422.50;5013476;28;20272;-44
2023/05/31 00:16:37;;;;;;;0.30;0.30;;;20.60;47.90;;;21.07;33.19;95421.13;5014424;28;20196;-46
2023/05/31 00:19:07;;;;;;;0.40;0.40;;;20.60;48.00;;;21.04;33.52;95422.41;5015004;28;20582;-45
2023/05/31 00:21:35;;;;;;;0.30;0.30;;;20.60;48.10;;;21.02;33.20;95423.69;5014822;28;20203;-44
2023/05/31 00:24:02;;;;;;;0.43;0.43;;;20.60;48.00;;;20.99;33.39;95422.31;5013362;28;20239;-45
2023/05/31 00:26:29;;;;;;;0.40;0.40;;;20.60;48.00;;;20.98;33.13;95422.59;5014226;28;20297;-45
2023/05/31 00:28:57;;;;;;;0.40;0.40;;;20.50;48.00;;;20.94;33.61;95425.72;5014583;28;20278;-49
2023/05/31 00:31:24;;;;;;;0.38;0.38;;;20.50;47.90;;;20.93;33.12;95425.97;5014123;28;20270;-45
2023/05/31 00:33:51;;;;;;;0.60;0.60;;;20.50;48.00;;;20.91;33.56;95431.56;5014685;28;20300;-45
2023/05/31 00:36:18;;;;;;;0.40;0.40;;;20.50;48.00;;;20.88;33.45;95426.69;5013075;28;20191;-46
2023/05/31 00:38:45;;;;;;;0.40;0.40;;;20.50;47.90;;;20.87;33.25;95422.44;5014147;28;20192;-45
2023/05/31 00:41:12;;;;;;;0.40;0.40;;;20.40;47.80;;;20.85;33.66;95423.72;4996985;28;20220;-46
2023/05/31 00:43:40;;;;;;;0.50;0.50;;;20.40;47.90;;;20.81;33.53;95411.94;5013079;28;20635;-45
2023/05/31 00:46:23;;;;;;;0.50;0.50;;;20.40;47.90;;;20.78;33.38;95421.22;5013864;28;20193;-48
2023/05/31 00:48:51;;;;;;;0.40;0.40;;;20.40;48.00;;;20.76;33.53;95418.81;5013078;28;20188;-46
2023/05/31 00:51:19;;;;;;;0.40;0.40;;;20.40;48.00;;;20.74;33.53;95414.78;4997033;28;20202;-44
2023/05/31 00:53:47;;;;;;;0.50;0.50;;;20.30;47.90;;;20.72;33.71;95412.34;5013852;28;20268;-44
2023/05/31 00:56:15;;;;;;;0.38;0.38;;;20.30;47.90;;;20.69;33.42;95412.81;5013670;28;20250;-44
2023/05/31 00:58:45;;;;;;;0.50;0.50;;;20.30;48.00;;;20.68;33.10;95416.53;4996759;28;20258;-43
2023/05/31 01:01:14;;;;;;;0.40;0.40;;;20.30;48.00;;;20.65;33.67;95411.66;5012809;28;20210;-44
2023/05/31 01:03:41;;;;;;;0.40;0.40;;;20.30;49.40;;;20.62;33.38;95412.97;5013164;28;20201;-44
2023/05/31 01:06:10;;;;;;;0.50;0.50;;;20.30;48.10;;;20.61;33.38;95413.22;5013518;28;20612;-44
2023/05/31 01:08:38;;;;;;;0.40;0.40;;;20.20;48.10;;;20.59;33.97;95413.47;5012731;28;20545;-44
2023/05/31 01:11:49;;;;;;;0.43;0.43;;;20.20;48.10;;;20.54;33.50;95407.25;4996538;28;20230;-43
2023/05/31 01:14:46;;;;;;;0.40;0.40;;;20.20;48.10;;;20.48;33.94;95411.66;5013263;28;20277;-44
2023/05/31 01:17:34;;;;;;;0.40;0.40;;;20.20;48.30;;;20.44;33.52;95411.34;5012393;28;20206;-44
2023/05/31 01:20:11;;;;;;;0.40;0.40;;;20.10;48.20;;;20.41;33.91;95411.00;5012595;28;20194;-44
2023/05/31 01:23:09;;;;;;;0.40;0.40;;;20.10;48.20;;;20.37;34.06;95412.56;4996825;28;20271;-45
2023/05/31 01:25:58;;;;;;;0.40;0.40;;;20.10;48.30;;;20.34;33.83;95413.84;5013448;28;20630;-44
2023/05/31 01:28:33;;;;;;;0.40;0.40;;;20.00;48.30;;;20.33;33.62;95408.78;4996338;28;20203;-43
2023/05/31 01:31:04;;;;;;;0.50;0.50;;;20.00;48.30;;;20.31;34.11;95409.81;5012254;28;20631;-46
2023/05/31 01:33:33;;;;;;;0.40;0.40;;;20.00;48.20;;;20.30;34.19;95413.53;5012776;28;20182;-45
2023/05/31 01:36:00;;;;;;;0.50;0.50;;;20.00;48.30;;;20.28;34.04;95412.94;5013126;28;20222;-44
2023/05/31 01:38:28;;;;;;;0.50;0.50;;;19.90;48.30;;;20.27;33.82;95411.31;5012586;28;20234;-44
2023/05/31 01:40:56;;;;;;;0.50;0.50;;;19.90;48.40;;;20.25;33.81;95408.13;5013454;28;20187;-44
2023/05/31 01:43:26;;;;;;;0.35;0.35;;;19.90;48.40;;;20.24;33.78;95403.84;5012144;28;20204;-46
2023/05/31 01:45:55;;;;;;;0.38;0.38;;;19.90;48.40;;;20.23;34.25;95404.88;4996032;28;20197;-44
2023/05/31 01:48:26;;;;;;;0.50;0.50;;;19.90;48.40;;;20.22;34.27;95410.44;5011998;28;20197;-44
2023/05/31 01:50:55;;;;;;;0.50;0.50;;;19.90;48.60;;;20.20;34.39;95405.38;4995954;28;20218;-44
2023/05/31 01:53:23;;;;;;;0.40;0.40;;;19.90;48.50;;;20.19;34.37;95411.75;5012133;28;20286;-45
2023/05/31 01:55:50;;;;;;;0.50;0.50;;;19.90;48.60;;;20.18;34.09;95406.63;5012878;28;20296;-49
2023/05/31 01:58:18;;;;;;;0.45;0.45;;;19.80;48.40;;;20.15;34.01;95403.44;5011915;28;20287;-45
2023/05/31 02:00:46;;;;;;;0.40;0.40;;;19.80;48.50;;;20.12;34.03;95405.75;4996660;28;20257;-43
2023/05/31 02:03:13;;;;;;;0.47;0.47;;;19.80;48.70;;;20.11;34.08;95404.94;5011913;28;20201;-44
2023/05/31 02:06:00;;;;;;;0.40;0.40;;;19.80;48.60;;;20.08;34.36;95407.25;5011793;28;20265;-43
2023/05/31 02:08:28;;;;;;;0.40;0.40;;;19.80;48.60;;;20.06;34.01;95406.72;5012680;28;20252;-44
2023/05/31 02:10:55;;;;;;;0.40;0.40;;;19.80;48.60;;;20.05;34.39;95402.44;5011767;28;20227;-43
2023/05/31 02:13:28;;;;;;;0.57;0.57;;;19.70;48.60;;;20.02;34.02;95398.41;5011757;28;20270;-46
2023/05/31 02:15:55;;;;;;;0.40;0.40;;;19.70;48.60;;;20.03;34.52;95417.84;4995647;28;20735;-48
2023/05/31 02:18:26;;;;;;;0.30;0.30;;;19.70;48.70;;;19.99;34.14;95397.03;4995473;28;20202;-46
2023/05/31 02:20:54;;;;;;;0.45;0.45;;;19.70;48.70;;;19.98;34.67;95402.56;4995932;28;20280;-44
2023/05/31 02:23:22;;;;;;;0.40;0.40;;;19.70;48.80;;;19.97;34.44;95400.97;5012564;28;20185;-47
2023/05/31 02:25:50;;;;;;;0.40;0.40;;;19.70;48.80;;;19.95;34.13;95405.72;5011829;28;20284;-44
2023/05/31 02:28:17;;;;;;;0.32;0.32;;;19.70;48.80;;;19.93;34.37;95403.31;4995233;28;20264;-45
2023/05/31 02:30:59;;;;;;;0.40;0.40;;;19.60;48.80;;;19.89;34.26;95412.81;5012235;28;20287;-45
2023/05/31 02:33:27;;;;;;;0.50;0.50;;;19.60;50.20;;;19.88;34.75;95399.75;4995281;28;20212;-45
2023/05/31 02:35:56;;;;;;;0.50;0.50;;;19.60;49.00;;;19.85;34.40;95403.69;5012599;28;20207;-47
2023/05/31 02:38:24;;;;;;;0.40;0.40;;;19.60;49.10;;;19.82;34.65;95398.78;5012228;28;20284;-46
2023/05/31 02:40:51;;;;;;;0.40;0.40;;;19.60;49.10;;;19.82;34.72;95401.47;5012353;28;20693;-44
2023/05/31 02:43:18;;;;;;;0.40;0.40;;;19.60;49.00;;;19.80;34.48;95398.25;5012589;28;20274;-43
2023/05/31 02:45:46;;;;;;;0.40;0.40;;;19.50;49.00;;;19.78;34.37;95401.13;5012598;28;20567;-43
2023/05/31 02:48:13;;;;;;;0.50;0.50;;;19.50;49.00;;;19.77;34.90;95404.03;5011175;28;20224;-43
2023/05/31 02:50:40;;;;;;;0.50;0.50;;;19.50;49.00;;;19.76;34.43;95403.22;5011242;28;20724;-43
2023/05/31 02:53:21;;;;;;;0.43;0.43;;;19.50;49.00;;;19.74;34.44;95407.16;5011255;28;20242;-43
2023/05/31 02:56:05;;;;;;;0.40;0.40;;;19.50;49.20;;;19.71;34.89;95413.75;5011181;28;20216;-43
2023/05/31 02:58:51;;;;;;;0.40;0.40;;;19.50;49.10;;;19.68;34.60;95423.03;5012076;28;20259;-43
2023/05/31 03:01:29;;;;;;;0.40;0.40;;;19.50;49.20;;;19.65;35.20;95417.38;5011163;28;20258;-43
2023/05/31 03:04:18;;;;;;;0.45;0.45;;;19.40;49.20;;;19.65;35.01;95420.03;5011127;28;20197;-43
2023/05/31 03:06:46;;;;;;;0.50;0.50;;;19.40;49.20;;;19.64;35.18;95415.75;5011712;28;20632;-44
2023/05/31 03:09:16;;;;;;;0.50;0.50;;;19.40;49.30;;;19.63;34.97;95419.47;5011075;28;20590;-43
2023/05/31 03:11:44;;;;;;;0.40;0.40;;;19.40;49.30;;;19.61;34.80;95418.91;5011059;28;20258;-43
2023/05/31 03:14:12;;;;;;;0.40;0.40;;;19.40;49.40;;;19.60;35.08;95415.41;4994832;28;20197;-43
2023/05/31 03:16:47;;;;;;;0.40;0.40;;;19.40;49.50;;;19.60;35.20;95423.41;5010840;28;20193;-43
2023/05/31 03:19:16;;;;;;;0.40;0.40;;;19.40;49.40;;;19.59;35.29;95420.97;5012127;28;20201;-43
2023/05/31 03:21:48;;;;;;;0.43;0.43;;;19.30;49.40;;;19.58;35.00;95422.03;5010907;28;20690;-45
2023/05/31 03:24:15;;;;;;;0.43;0.43;;;19.30;49.50;;;19.56;35.07;95421.47;5010873;28;20201;-43
2023/05/31 03:26:45;;;;;;;0.50;0.50;;;19.30;49.50;;;19.55;34.90;95423.31;5010935;28;20177;-44
2023/05/31 03:29:13;;;;;;;0.47;0.47;;;19.30;49.50;;;19.54;35.00;95423.53;5010789;28;20236;-45
2023/05/31 03:31:40;;;;;;;0.40;0.40;;;19.30;50.90;;;19.52;35.17;95427.25;5011613;28;20247;-43
2023/05/31 03:34:08;;;;;;;0.50;0.50;;;19.30;49.60;;;19.51;35.50;95422.16;5011662;28;20278;-44
2023/05/31 03:36:37;;;;;;;0.50;0.50;;;19.30;49.70;;;19.51;35.06;95430.94;5012821;28;20225;-45
2023/05/31 03:39:20;;;;;;;0.40;0.40;;;19.30;49.80;;;19.50;35.12;95429.31;5014115;28;20216;-46
2023/05/31 03:41:47;;;;;;;0.40;0.40;;;19.30;49.90;;;19.48;35.06;95428.78;4998004;28;20207;-44
2023/05/31 03:44:14;;;;;;;0.40;0.40;;;19.30;50.00;;;19.48;35.24;95430.59;5014959;28;20204;-44
2023/05/31 03:46:41;;;;;;;0.40;0.40;;;19.30;50.00;;;19.48;35.24;95430.59;5015136;28;20287;-47
2023/05/31 03:49:09;;;;;;;0.47;0.47;;;19.20;50.00;;;19.46;35.67;95427.41;5013766;28;20205;-44
2023/05/31 03:51:36;;;;;;;0.40;0.40;;;19.20;50.00;;;19.45;35.21;95423.13;5015099;28;20193;-45
2023/05/31 03:54:03;;;;;;;0.30;0.30;;;19.20;50.00;;;19.44;35.52;95424.94;5030224;28;20632;-47
2023/05/31 03:56:31;;;;;;;0.50;0.50;;;19.20;50.20;;;19.42;36.02;95432.38;5013753;28;20254;-43
2023/05/31 03:58:59;;;;;;;0.50;0.50;;;19.20;50.20;;;19.41;35.94;95438.72;5013620;28;20200;-44
2023/05/31 04:01:26;;;;;;;0.50;0.50;;;19.20;50.30;;;19.40;36.22;95434.44;5013767;28;20197;-45
2023/05/31 04:03:53;;;;;;;0.40;0.40;;;19.20;50.30;;;19.40;36.08;95426.47;5013739;28;20206;-43
2023/05/31 04:06:22;;;;;;;0.40;0.40;;;19.20;50.30;;;19.39;36.00;95432.81;5014843;28;20208;-45
2023/05/31 04:08:49;;;;;;;0.40;0.40;;;19.20;50.50;;;19.38;36.17;95433.06;5013523;28;20209;-45
2023/05/31 04:11:16;;;;;;;0.40;0.40;;;19.20;50.50;;;19.35;36.23;95435.16;5013616;28;20636;-43
2023/05/31 04:13:43;;;;;;;0.40;0.40;;;19.20;50.60;;;19.35;36.29;95437.00;5014378;28;20209;-44
2023/05/31 04:16:11;;;;;;;0.50;0.50;;;19.20;50.70;;;19.34;36.01;95427.41;5013444;28;20237;-44
2023/05/31 04:18:38;;;;;;;0.43;0.43;;;19.20;50.80;;;19.33;36.50;95431.09;5014261;28;20268;-43
2023/05/31 04:21:07;;;;;;;0.40;0.40;;;19.20;50.90;;;19.32;36.41;95432.16;5013657;28;20223;-47
2023/05/31 04:23:36;;;;;;;0.40;0.40;;;19.20;51.10;;;19.33;36.74;95436.44;5013447;28;20253;-46
2023/05/31 04:26:03;;;;;;;0.50;0.50;;;19.10;51.00;;;19.31;36.16;95436.66;5013366;28;20212;-48
2023/05/31 04:28:31;;;;;;;0.40;0.40;;;19.20;51.20;;;19.30;36.82;95440.38;5013211;28;20261;-44
2023/05/31 04:31:00;;;;;;;0.50;0.50;;;19.10;51.20;;;19.31;36.89;95435.84;5013178;28;20237;-43
2023/05/31 04:33:29;;;;;;;0.40;0.40;;;19.20;51.30;;;19.31;36.54;95441.16;5014166;28;20194;-43
2023/05/31 04:35:57;;;;;;;0.40;0.40;;;19.20;51.40;;;19.33;36.56;95433.78;5014028;28;20220;-43
2023/05/31 04:38:27;;;;;;;0.45;0.45;;;19.20;51.40;;;19.32;36.96;95448.09;5013383;28;20291;-43
2023/05/31 04:41:00;;;;;;;0.40;0.40;;;19.20;51.50;;;19.33;36.92;95452.38;5013897;28;20205;-43
2023/05/31 04:43:27;;;;;;;0.40;0.40;;;19.20;51.50;;;19.33;36.75;95449.72;5013121;28;20587;-43
2023/05/31 04:45:55;;;;;;;0.47;0.47;;;19.20;51.60;;;19.34;36.98;95454.00;5013088;28;20538;-43
2023/05/31 04:48:23;;;;;;;0.60;0.60;;;19.20;51.50;;;19.34;36.81;95452.16;5012248;28;20586;-43
2023/05/31 04:50:54;;;;;;;0.40;0.40;;;19.20;51.70;;;19.34;37.01;95457.47;5013344;28;20258;-44
2023/05/31 04:53:23;;;;;;;0.50;0.50;;;19.20;51.70;;;19.35;37.20;95459.09;5012963;28;20229;-43
2023/05/31 04:55:51;;;;;;;0.47;0.47;;;19.30;51.80;;;19.38;36.83;95467.66;5014069;28;20532;-43
2023/05/31 04:58:19;;;;;;;0.40;0.40;;;19.30;51.80;;;19.38;37.09;95470.31;4996861;28;20208;-43
2023/05/31 05:00:46;;;;;;;0.50;0.50;;;19.30;51.80;;;19.38;37.17;95465.00;5013127;28;20201;-43
2023/05/31 05:03:20;;;;;;;0.40;0.40;;;19.30;51.70;;;19.40;37.07;95473.56;5013446;28;20223;-44
2023/05/31 05:05:50;;;;;;;0.40;0.40;;;19.30;51.80;;;19.40;37.12;95474.34;5012795;28;20278;-43
2023/05/31 05:08:18;;;;;;;0.40;0.40;;;19.30;51.80;;;19.40;37.00;95479.66;5098804;28;20204;-47
2023/05/31 05:10:46;;;;;;;0.43;0.43;;;19.30;51.80;;;19.43;36.72;95478.38;5012762;28;20296;-47
2023/05/31 05:13:13;;;;;;;0.40;0.40;;;19.30;51.80;;;19.43;36.83;95465.91;5013606;28;20253;-45
2023/05/31 05:15:42;;;;;;;0.60;0.60;;;19.30;51.80;;;19.44;37.52;95469.38;5013830;28;20220;-45
2023/05/31 05:18:10;;;;;;;0.40;0.40;;;19.40;51.80;;;19.46;36.86;95469.97;5012455;28;20278;-45
2023/05/31 05:20:38;;;;;;;0.40;0.40;;;19.40;53.10;;;19.46;37.51;95469.97;5012573;28;20205;-46
2023/05/31 05:23:07;;;;;;;0.50;0.50;;;19.40;51.90;;;19.47;37.04;95468.88;4996770;28;20205;-45
2023/05/31 05:25:35;;;;;;;0.45;0.45;;;19.40;51.90;;;19.50;37.19;95479.88;5013262;28;20735;-46
2023/05/31 05:28:03;;;;;;;0.47;0.47;;;19.40;51.90;;;19.50;37.46;95473.75;5012282;28;20210;-45
2023/05/31 05:30:30;;;;;;;0.50;0.50;;;19.40;51.90;;;19.52;37.43;95475.13;5013521;28;20241;-47
2023/05/31 05:32:57;;;;;;;0.47;0.47;;;19.40;51.90;;;19.53;37.01;95470.63;5013276;28;20661;-46
2023/05/31 05:35:24;;;;;;;0.40;0.40;;;19.40;51.90;;;19.55;37.56;95463.22;5012268;28;20240;-45
2023/05/31 05:37:52;;;;;;;0.40;0.40;;;19.50;52.10;;;19.58;37.21;95477.91;5012185;28;20634;-47
2023/05/31 05:40:20;;;;;;;0.43;0.43;;;19.50;52.00;;;19.58;37.14;95476.06;5013415;28;20205;-49
2023/05/31 05:42:48;;;;;;;0.50;0.50;;;19.50;52.10;;;19.59;37.45;95480.34;5012199;28;20215;-45
2023/05/31 05:45:16;;;;;;;0.43;0.43;;;19.50;52.10;;;19.60;36.95;95471.28;5012420;28;20206;-45
2023/05/31 05:47:45;;;;;;;0.40;0.40;;;19.50;52.00;;;19.62;37.02;95482.53;5012121;28;20216;-47
2023/05/31 05:50:16;;;;;;;0.40;0.40;;;19.50;52.00;;;19.64;37.01;95477.78;5012222;28;20272;-45
2023/05/31 05:52:43;;;;;;;0.40;0.40;;;19.50;53.30;;;19.66;37.05;95480.19;5012093;28;20214;-48
2023/05/31 05:55:10;;;;;;;0.50;0.50;;;19.50;52.00;;;19.66;37.58;95485.53;5013161;28;20201;-46
2023/05/31 05:57:37;;;;;;;0.45;0.45;;;19.60;52.10;;;19.68;37.47;95491.44;5012262;28;20598;-46
2023/05/31 06:00:33;;;;;;;0.40;0.40;;;19.60;52.00;;;19.69;37.25;95490.38;5010908;28;20197;-48
2023/05/31 06:03:01;;;;;;;0.40;0.40;;;19.60;52.00;;;19.71;37.21;95490.94;5011977;28;20276;-49
2023/05/31 06:05:28;;;;;;;0.40;0.40;;;19.60;52.00;;;19.72;37.38;95489.91;5011903;28;20283;-46
2023/05/31 06:07:55;;;;;;;0.50;0.50;;;19.60;52.00;;;19.74;37.82;95490.47;5011707;28;20205;-45
2023/05/31 06:10:23;;;;;;;0.40;0.40;;;19.60;52.10;;;19.75;37.41;95492.09;5011809;28;20566;-49
2023/05/31 06:12:51;;;;;;;0.50;0.50;;;19.60;52.10;;;19.75;37.65;95494.78;5011764;28;20219;-48
2023/05/31 06:15:20;;;;;;;0.40;0.40;;;19.70;52.20;;;19.78;37.13;95499.59;5011739;28;20358;-49
2023/05/31 06:17:50;;;;;;;0.60;0.60;;;19.70;52.20;;;19.81;37.04;95498.31;5011817;28;20196;-45
2023/05/31 06:20:18;;;;;;;0.55;0.55;;;19.70;52.20;;;19.81;37.71;95500.97;5011651;28;20187;-46
2023/05/31 06:22:45;;;;;;;0.40;0.40;;;19.70;52.20;;;19.84;37.50;95496.03;5011697;28;20212;-44
2023/05/31 06:25:14;;;;;;;0.40;0.40;;;19.70;52.20;;;19.86;37.11;95490.50;5011604;28;20210;-44
2023/05/31 06:27:41;;;;;;;0.60;0.60;;;19.80;52.40;;;19.88;37.85;95499.03;5012666;28;20216;-45
2023/05/31 06:30:10;;;;;;;0.50;0.50;;;19.70;52.30;;;19.91;37.32;95495.91;5011265;28;20244;-45
2023/05/31 06:32:43;;;;;;;0.45;0.45;;;19.80;52.30;;;19.93;37.62;95501.00;5011759;28;20207;-47
2023/05/31 06:35:15;;;;;;;0.38;0.38;;;19.80;52.30;;;19.95;37.22;95497.03;5012601;28;20244;-47
2023/05/31 06:37:44;;;;;;;0.40;0.40;;;19.80;52.30;;;19.97;37.44;95496.84;5011455;28;20208;-45
2023/05/31 06:40:11;;;;;;;0.40;0.40;;;19.90;52.50;;;20.00;37.37;95496.34;5012232;28;20193;-45
2023/05/31 06:42:39;;;;;;;0.40;0.40;;;19.90;52.40;;;20.03;37.77;95495.88;5011388;28;20202;-45
2023/05/31 06:45:18;;;;;;;0.50;0.50;;;19.90;52.40;;;20.04;37.79;95486.03;5012607;28;20603;-45
2023/05/31 06:47:51;;;;;;;0.43;0.43;;;19.90;52.40;;;20.07;37.63;95490.91;5011458;28;20195;-47
2023/05/31 06:50:21;;;;;;;0.45;0.45;;;19.90;52.40;;;20.08;37.29;95489.81;5012415;28;20578;-47
2023/05/31 06:52:51;;;;;;;0.50;0.50;;;20.00;52.50;;;20.12;37.54;95493.66;5012417;28;20197;-46
2023/05/31 06:55:38;;;;;;;0.30;0.30;;;20.00;52.40;;;20.12;37.45;95494.44;5008619;28;20228;-46
2023/05/31 06:58:08;;;;;;;0.50;0.50;;;20.00;52.40;;;20.15;37.30;95491.31;5011458;28;20211;-46
2023/05/31 07:00:36;;;;;;;0.45;0.45;;;20.00;52.40;;;20.18;37.31;95491.88;5012237;28;20207;-48
2023/05/31 07:03:04;;;;;;;0.40;0.40;;;20.00;52.40;;;20.21;37.35;95494.06;5011126;28;20206;-46
2023/05/31 07:05:33;;;;;;;0.50;0.50;;;20.10;52.50;;;20.23;37.74;95500.78;5027810;28;20540;-52
2023/05/31 07:08:00;;;;;;;0.47;0.47;;;20.10;52.50;;;20.25;37.76;95496.03;5011835;28;20204;-46
2023/05/31 07:10:28;;;;;;;0.50;0.50;;;20.10;52.50;;;20.29;37.57;95489.16;5011468;28;20261;-46
2023/05/31 07:12:58;;;;;;;0.43;0.43;;;20.10;52.50;;;20.30;37.69;95488.13;5014572;28;20204;-48
2023/05/31 07:15:25;;;;;;;0.40;0.40;;;20.20;52.60;;;20.33;37.87;95483.38;5014426;28;20215;-46
2023/05/31 07:17:52;;;;;;;0.50;0.50;;;20.20;52.50;;;20.36;37.49;95486.38;5015447;28;20261;-46
2023/05/31 07:20:22;;;;;;;0.40;0.40;;;20.20;52.40;;;20.38;37.39;95486.91;5014293;28;20203;-45
2023/05/31 07:22:51;;;;;;;0.40;0.40;;;20.20;52.50;;;20.42;37.47;95492.56;5015585;28;20594;-45
2023/05/31 07:25:18;;;;;;;0.60;0.60;;;20.20;52.50;;;20.42;37.79;95485.41;5015314;28;20271;-46
2023/05/31 07:27:45;;;;;;;0.50;0.50;;;20.30;52.60;;;20.48;37.60;95499.59;5015219;28;20583;-50
2023/05/31 07:30:12;;;;;;;0.40;0.40;;;20.30;52.60;;;20.51;37.87;95496.47;5015149;28;20260;-46
2023/05/31 07:32:39;;;;;;;0.40;0.40;;;20.30;52.50;;;20.53;37.74;95491.72;5015450;28;20579;-47
2023/05/31 07:35:07;;;;;;;0.40;0.40;;;20.40;52.50;;;20.56;37.35;95495.75;5014542;28;20257;-46
2023/05/31 07:37:34;;;;;;;0.40;0.40;;;20.40;52.40;;;20.60;37.70;95488.88;5014962;28;20267;-46
2023/05/31 07:40:04;;;;;;;0.40;0.40;;;20.40;52.30;;;20.63;37.12;95483.09;5015013;28;20585;-48
2023/05/31 07:42:32;;;;;;;0.40;0.40;;;20.50;52.40;;;20.67;37.35;95486.06;5015094;28;20189;-50
2023/05/31 07:45:00;;;;;;;0.60;0.60;;;20.50;52.40;;;20.68;37.29;95493.81;5014989;28;20192;-47
2023/05/31 07:47:27;;;;;;;0.45;0.45;;;20.50;52.30;;;20.72;37.48;95488.84;5014884;28;20205;-49
2023/05/31 07:49:54;;;;;;;0.50;0.50;;;20.50;52.30;;;20.75;36.92;95485.69;5014748;28;20201;-48
2023/05/31 07:52:21;;;;;;;0.32;0.32;;;20.50;52.20;;;20.77;36.97;95480.94;5014915;28;20261;-48
2023/05/31 07:54:49;;;;;;;0.40;0.40;;;20.60;52.20;;;20.78;36.99;95480.69;5015258;28;20202;-47
2023/05/31 07:57:17;;;;;;;0.50;0.50;;;20.60;52.20;;;20.84;37.51;95481.56;5014792;28;20300;-49
2023/05/31 07:59:46;;;;;;;0.50;0.50;;;20.60;52.30;;;20.86;37.08;95479.50;4997713;28;20268;-48
2023/05/31 08:02:14;;;;;;;0.40;0.40;;;20.70;52.30;;;20.90;37.44;95477.16;5014199;28;20197;-45
2023/05/31 08:04:41;;;;;;;0.50;0.50;;;20.70;52.20;;;20.93;37.18;95476.63;5014903;28;20243;-45
2023/05/31 08:07:08;;;;;;;0.60;0.60;;;20.70;52.30;;;20.96;37.27;95476.16;5014596;28;20258;-45
2023/05/31 08:09:35;;;;;;;0.40;0.40;;;20.70;52.20;;;20.99;36.81;95475.66;5014627;28;20205;-45
2023/05/31 08:12:03;;;;;;;0.50;0.50;;;20.80;52.20;;;21.03;37.00;95473.31;5014575;28;20280;-45
2023/05/31 08:14:30;;;;;;;0.40;0.40;;;20.80;52.20;;;21.05;37.09;95468.56;5014495;28;20196;-45
2023/05/31 08:16:57;;;;;;;0.40;0.40;;;20.80;52.10;;;21.10;37.27;95479.28;5014637;28;20736;-45
2023/05/31 08:19:25;;;;;;;0.50;0.50;;;20.90;52.20;;;21.13;37.25;95476.16;5014402;28;20201;-45
2023/05/31 08:21:52;;;;;;;0.40;0.40;;;20.90;52.10;;;21.16;36.70;95458.84;5013835;28;20231;-45
2023/05/31 08:24:19;;;;;;;0.50;0.50;;;20.90;52.00;;;21.19;37.08;95469.00;5014140;28;20254;-45
2023/05/31 08:26:46;;;;;;;0.40;0.40;;;21.00;52.10;;;21.22;36.83;95468.53;5014621;28;20223;-46
2023/05/31 08:29:13;;;;;;;0.40;0.40;;;21.00;52.20;;;21.24;36.75;95474.44;5013641;28;20632;-47
2023/05/31 08:31:40;;;;;;;0.60;0.60;;;21.00;52.10;;;21.28;36.90;95472.88;5014174;28;20245;-46
2023/05/31 08:34:08;;;;;;;0.40;0.40;;;21.00;52.00;;;21.31;36.99;95472.38;5014233;28;20216;-46
2023/05/31 08:36:35;;;;;;;0.40;0.40;;;21.10;52.00;;;21.34;36.95;95479.13;5014113;28;20213;-45
2023/05/31 08:39:03;;;;;;;0.40;0.40;;;21.10;52.00;;;21.37;36.85;95470.59;5014265;28;20251;-46
2023/05/31 08:41:35;;;;;;;0.40;0.40;;;21.10;52.00;;;21.39;36.74;95479.19;5014131;28;20193;-45
2023/05/31 08:44:05;;;;;;;0.40;0.40;;;21.10;52.00;;;21.41;36.47;95483.22;5014324;28;20209;-46
2023/05/31 08:46:34;;;;;;;0.40;0.40;;;21.20;52.00;;;21.43;36.47;95465.09;5014049;28;20594;-48
2023/05/31 08:49:07;;;;;;;0.40;0.40;;;21.20;51.80;;;21.46;37.08;95471.81;4997113;28;20194;-46
2023/05/31 08:51:36;;;;;;;0.50;0.50;;;21.20;51.80;;;21.48;36.51;95480.34;5013911;28;20187;-46
2023/05/31 08:54:06;;;;;;;0.40;0.40;;;21.30;51.90;;;21.51;36.88;95476.41;5014190;28;20520;-45
2023/05/31 08:56:34;;;;;;;0.50;0.50;;;21.30;52.00;;;21.54;36.47;95473.22;5013799;28;20226;-47
2023/05/31 08:59:03;;;;;;;0.40;0.40;;;21.30;53.20;;;21.57;36.79;95473.56;5014451;28;20733;-47
2023/05/31 09:01:31;;;;;;;0.50;0.50;;;21.40;51.90;;;21.61;36.47;95473.09;5013685;28;20233;-48
2023/05/31 09:03:59;;;;;;;0.30;0.30;;;21.40;51.90;;;21.63;36.46;95476.28;5013799;28;20647;-47
2023/05/31 09:06:26;;;;;;;0.30;0.30;;;21.40;51.80;;;21.64;36.24;95473.41;5013769;28;20197;-48
2023/05/31 09:08:53;;;;;;;0.40;0.40;;;21.40;52.20;;;21.68;36.48;95471.00;5013661;28;20682;-47
2023/05/31 09:11:22;;;;;;;0.50;0.50;;;21.40;51.60;;;21.69;36.70;95476.13;5013545;28;20198;-48
2023/05/31 09:13:50;;;;;;;0.35;0.35;;;21.50;51.80;;;21.73;36.41;95473.78;5013896;28;20535;-48
2023/05/31 09:16:17;;;;;;;0.32;0.32;;;21.50;51.70;;;21.75;36.61;95471.63;5013636;28;20285;-48
2023/05/31 09:18:44;;;;;;;0.30;0.30;;;21.50;51.70;;;21.79;36.36;95474.63;5013789;28;20202;-48
2023/05/31 09:21:14;;;;;;;0.40;0.40;;;21.50;51.60;;;21.82;36.51;95460.78;5013330;28;20220;-48
2023/05/31 09:23:59;;;;;;;0.40;0.40;;;21.60;51.80;;;21.84;36.36;95462.16;5013585;28;20189;-48
2023/05/31 09:26:28;;;;;;;0.50;0.50;;;21.60;51.80;;;21.87;36.21;95458.16;5013838;28;20614;-47
2023/05/31 09:28:55;;;;;;;0.50;0.50;;;21.60;51.80;;;21.91;36.54;95459.31;5013953;28;20207;-46
2023/05/31 09:31:23;;;;;;;0.40;0.40;;;21.70;51.80;;;21.92;36.32;95463.56;5012049;28;20254;-47
2023/05/31 09:33:51;;;;;;;0.30;0.30;;;21.70;51.90;;;21.95;36.65;95455.06;5013670;28;20226;-50
2023/05/31 09:36:27;;;;;;;0.47;0.47;;;21.70;51.80;;;21.99;36.55;95452.69;5014015;28;20279;-47
2023/05/31 09:39:01;;;;;;;0.30;0.30;;;21.70;51.80;;;22.00;36.23;95451.66;5013494;28;20233;-47
2023/05/31 09:41:28;;;;;;;0.50;0.50;;;21.70;51.90;;;22.03;36.50;95461.81;5013096;28;20185;-49
2023/05/31 09:43:55;;;;;;;0.50;0.50;;;21.80;51.90;;;22.05;36.69;95459.69;5013485;28;20224;-52
2023/05/31 09:46:24;;;;;;;0.40;0.40;;;21.80;51.80;;;22.09;36.47;95452.00;5013605;28;20296;-52
2023/05/31 09:49:06;;;;;;;0.40;0.40;;;21.80;51.80;;;22.11;36.55;95457.91;5013685;28;20200;-47
2023/05/31 09:51:34;;;;;;;0.40;0.40;;;21.80;51.80;;;22.13;36.53;95450.41;5013028;28;20188;-48
2023/05/31 09:54:10;;;;;;;0.50;0.50;;;21.90;51.80;;;22.14;36.26;95442.19;5013298;28;20308;-48
2023/05/31 09:56:40;;;;;;;0.40;0.40;;;21.90;51.70;;;22.17;36.41;95440.88;5012021;28;20552;-48
2023/05/31 09:59:08;;;;;;;0.40;0.40;;;21.90;52.90;;;22.19;36.42;95447.56;4996327;28;20195;-47
2023/05/31 10:01:36;;;;;;;0.40;0.40;;;21.90;51.70;;;22.22;36.53;95440.91;5012804;28;20565;-48
2023/05/31 10:04:05;;;;;;;0.40;0.40;;;22.00;51.70;;;22.25;36.47;95442.25;5012891;28;20200;-47
2023/05/31 10:06:37;;;;;;;0.40;0.40;;;22.00;51.70;;;22.26;36.43;95439.34;5012791;28;20208;-48
2023/05/31 10:09:07;;;;;;;0.40;0.40;;;22.00;51.70;;;22.28;36.00;95437.22;5011907;28;20619;-48
2023/05/31 10:11:37;;;;;;;0.30;0.30;;;22.00;51.70;;;22.31;36.48;95443.94;5012662;28;20623;-50
2023/05/31 10:14:19;;;;;;;0.30;0.30;;;22.00;51.70;;;22.32;36.36;95438.31;4979526;28;20215;-49
2023/05/31 10:16:54;;;;;;;0.30;0.30;;;22.10;51.80;;;22.34;36.31;95441.56;5012110;28;20292;-49
2023/05/31 10:19:42;;;;;;;0.40;0.40;;;22.10;51.80;;;22.36;36.16;95443.97;5012903;28;20367;-48
2023/05/31 10:22:12;;;;;;;0.30;0.30;;;22.10;51.70;;;22.41;36.24;95432.56;5012572;28;20247;-48
2023/05/31 10:25:04;;;;;;;0.30;0.30;;;22.10;51.70;;;22.42;36.42;95434.16;5012877;28;20202;-48
2023/05/31 10:27:45;;;;;;;0.30;0.30;;;22.20;51.70;;;22.43;35.94;95433.91;5011855;28;20273;-48
2023/05/31 10:30:14;;;;;;;0.50;0.50;;;22.20;51.70;;;22.46;36.17;95421.91;5012245;28;20232;-48
2023/05/31 10:32:48;;;;;;;0.40;0.40;;;22.20;51.70;;;22.49;36.06;95427.53;5013049;28;20269;-48